This is the latest recevied weather packets stored in our database for station/object JE3XST-13. If no packets are shown the sender has not sent any weather packets the latest 10 day(s).
| Time | Temp. | Humidity | Pressure | Rain* | Wind** | Luminosity | Snow |
|---|---|---|---|---|---|---|---|
| 1787706856 | 32.78° C | 67% | 1009.8 hPa | 0 mm | - | - | - |
| 1787705054 | 32.22° C | 68% | 1010.2 hPa | 0 mm | - | - | - |
| 1787703253 | 31.67° C | 69% | 1010.1 hPa | 0 mm | - | - | - |
| 1787701452 | 30.56° C | 70% | 1010.2 hPa | 0 mm | - | - | - |
| 1787699541 | 30° C | 71% | 1010.5 hPa | 0 mm | - | - | - |
| 1787697740 | 29.44° C | 74% | 1010.8 hPa | 0 mm | - | - | - |
| 1787695938 | 28.89° C | 75% | 1010.8 hPa | 0 mm | - | - | - |
| 1787694137 | 27.22° C | 79% | 1010.8 hPa | 0 mm | - | - | - |
| 1787692338 | 26.11° C | 85% | 1010.8 hPa | 0 mm | - | - | - |
| 1787690536 | 25.56° C | 87% | 1010.8 hPa | 0 mm | - | - | - |
| 1787688736 | 25.56° C | 86% | 1010.4 hPa | 0 mm | - | - | - |
| 1787686934 | 25.56° C | 85% | 1010.4 hPa | 0 mm | - | - | - |
| 1787685133 | 26.11° C | 83% | 1010.5 hPa | 0 mm | - | - | - |
| 1787683334 | 26.67° C | 79% | 1010.8 hPa | 0 mm | - | - | - |
| 1787681534 | 26.67° C | 78% | 1010.6 hPa | 0 mm | - | - | - |
| 1787679733 | 26.67° C | 77% | 1010.9 hPa | 0 mm | - | - | - |
| 1787677934 | 26.67° C | 79% | 1010.8 hPa | 0 mm | - | - | - |
| 1787676133 | 26.67° C | 78% | 1011.2 hPa | 0 mm | - | - | - |
| 1787674331 | 27.22° C | 71% | 1011.1 hPa | 0 mm | - | - | - |
| 1787672530 | 27.22° C | 74% | 1011.6 hPa | 0 mm | - | - | - |
| 1787670730 | 27.78° C | 71% | 1011.8 hPa | 0 mm | - | - | - |
| 1787668931 | 27.78° C | 70% | 1011.5 hPa | 0 mm | - | - | - |
| 1787668015 | 27.78° C | 70% | 1011.5 hPa | 0 mm | - | - | - |
| 1787666215 | 27.78° C | 69% | 1011.3 hPa | 0 mm | - | - | - |
| 1787664414 | 27.78° C | 68% | 1011.2 hPa | 0 mm | - | - | - |
* Rain latest hour (hover to see other rain measurements)
** Current wind speed in m/s (hover to see current wind gust speed)